Time;durP1;ratioP1;P1;durP2;ratioP2;P2;SDS_P1;SDS_P2;PMS_P1;PMS_P2;Temp;Humidity;BMP_temperature;BMP_pressure;BME280_temperature;BME280_humidity;BME280_pressure;Samples;Min_cycle;Max_cycle;Signal;HPM_P1;HPM_P2
2022/03/31 00:00:46;;;;;;;6.47;3.42;;;5.20;99.90;;;;;;5132711;27;20035;-38
2022/03/31 00:03:17;;;;;;;4.85;2.55;;;5.20;99.90;;;;;;5133794;27;20376;-38
2022/03/31 00:05:44;;;;;;;8.02;3.28;;;5.20;99.90;;;;;;5133282;27;20110;-38
2022/03/31 00:08:15;;;;;;;4.95;3.70;;;5.20;99.90;;;;;;5133425;27;20015;-40
2022/03/31 00:10:40;;;;;;;;;;;5.20;99.90;;;;;;5133299;27;20047;-39
2022/03/31 00:13:10;;;;;;;4.07;2.67;;;5.10;99.90;;;;;;5133358;27;19969;-38
2022/03/31 00:15:35;;;;;;;4.00;2.75;;;5.10;99.90;;;;;;5134432;27;20026;-38
2022/03/31 00:18:03;;;;;;;6.25;3.63;;;5.10;99.90;;;;;;5145228;27;20030;-38
2022/03/31 00:20:29;;;;;;;6.30;3.03;;;5.00;99.90;;;;;;5153335;27;20562;-38
2022/03/31 00:22:55;;;;;;;5.60;2.97;;;5.00;99.90;;;;;;5153834;27;20034;-38
2022/03/31 00:25:23;;;;;;;3.08;2.60;;;5.00;99.90;;;;;;5153721;27;20622;-38
2022/03/31 00:27:49;;;;;;;4.03;2.90;;;5.00;99.90;;;;;;5153708;27;20015;-38
2022/03/31 00:30:15;;;;;;;13.52;2.70;;;4.90;99.90;;;;;;5152795;27;20033;-38
2022/03/31 00:32:41;;;;;;;7.13;3.35;;;4.90;99.90;;;;;;5153818;27;20041;-38
2022/03/31 00:35:12;;;;;;;7.07;3.30;;;4.90;99.90;;;;;;5153615;27;20031;-38
2022/03/31 00:37:42;;;;;;;5.68;2.65;;;4.80;99.90;;;;;;5152044;27;20026;-39
2022/03/31 00:40:09;;;;;;;7.10;3.17;;;4.80;99.90;;;;;;5152742;27;20520;-38
2022/03/31 00:42:43;;;;;;;7.53;3.05;;;4.80;99.90;;;;;;5153596;27;20098;-38
2022/03/31 00:45:12;;;;;;;4.65;3.40;;;4.70;99.90;;;;;;5153204;27;20411;-38
2022/03/31 00:47:38;;;;;;;5.90;2.58;;;4.60;99.90;;;;;;5144014;27;20011;-39
2022/03/31 00:50:04;;;;;;;10.13;3.47;;;4.70;99.90;;;;;;5152695;27;20038;-38
2022/03/31 00:52:29;;;;;;;5.30;3.05;;;4.60;99.90;;;;;;5153178;27;20189;-39
2022/03/31 00:54:55;;;;;;;7.35;3.22;;;4.60;99.90;;;;;;5153263;27;20023;-38
2022/03/31 00:57:21;;;;;;;6.15;3.15;;;4.50;99.90;;;;;;5153118;27;20023;-39
2022/03/31 00:59:46;;;;;;;7.03;3.15;;;4.50;99.90;;;;;;5152384;27;20034;-38
2022/03/31 01:02:13;;;;;;;4.97;3.15;;;4.50;99.90;;;;;;5152737;27;20022;-38
2022/03/31 01:04:40;;;;;;;6.07;2.88;;;4.50;99.90;;;;;;5153023;27;20027;-38
2022/03/31 01:07:05;;;;;;;8.55;3.22;;;4.40;99.90;;;;;;5152979;27;20068;-40
2022/03/31 01:09:32;;;;;;;5.72;3.00;;;4.40;99.90;;;;;;5151086;27;20425;-38
2022/03/31 01:12:00;;;;;;;6.65;2.78;;;4.50;99.90;;;;;;5153022;27;20023;-38
2022/03/31 01:14:25;;;;;;;5.50;3.10;;;4.40;99.90;;;;;;5152996;27;20023;-39
2022/03/31 01:16:51;;;;;;;6.28;2.90;;;4.50;99.90;;;;;;5140357;27;20098;-38
2022/03/31 01:19:17;;;;;;;6.32;3.30;;;4.40;99.90;;;;;;5148736;27;20057;-38
2022/03/31 01:21:47;;;;;;;4.75;2.78;;;4.50;99.90;;;;;;5152569;27;20054;-38
2022/03/31 01:24:14;;;;;;;5.10;3.30;;;4.50;99.90;;;;;;5152732;27;20106;-38
2022/03/31 01:26:40;;;;;;;10.70;3.20;;;4.50;99.90;;;;;;5151507;27;20111;-38
2022/03/31 01:29:08;;;;;;;4.82;2.80;;;4.50;99.90;;;;;;5150698;27;20049;-38
2022/03/31 01:31:33;;;;;;;5.43;2.45;;;4.40;99.90;;;;;;5142638;27;20030;-38
2022/03/31 01:33:59;;;;;;;6.43;3.05;;;4.40;99.90;;;;;;5146574;27;20023;-38
2022/03/31 01:36:26;;;;;;;5.55;2.83;;;4.40;99.90;;;;;;5152406;27;20035;-38
2022/03/31 01:38:52;;;;;;;7.85;3.67;;;4.40;99.90;;;;;;5151819;27;20019;-38
2022/03/31 01:41:18;;;;;;;9.82;3.28;;;4.40;99.90;;;;;;5140859;27;20035;-38
2022/03/31 01:43:43;;;;;;;6.90;3.53;;;4.40;99.90;;;;;;5119881;27;20016;-38
2022/03/31 01:46:09;;;;;;;7.07;3.33;;;4.40;99.90;;;;;;5120482;27;20114;-37
2022/03/31 01:48:35;;;;;;;5.65;3.75;;;4.40;99.90;;;;;;5116838;27;20031;-38
2022/03/31 01:51:04;;;;;;;7.28;3.10;;;4.30;99.90;;;;;;5125107;27;20027;-38
2022/03/31 01:53:30;;;;;;;7.40;3.38;;;4.30;99.90;;;;;;5122340;27;20023;-38
2022/03/31 01:55:56;;;;;;;8.38;3.30;;;4.30;99.90;;;;;;5119543;27;20027;-38
2022/03/31 01:58:22;;;;;;;5.35;3.33;;;4.30;99.90;;;;;;5121290;27;20011;-38
2022/03/31 02:00:48;;;;;;;5.78;3.25;;;4.30;99.90;;;;;;5118165;27;20493;-37
2022/03/31 02:03:13;;;;;;;7.55;3.65;;;4.20;99.90;;;;;;5120550;27;20111;-38
2022/03/31 02:05:39;;;;;;;10.02;3.70;;;4.20;99.90;;;;;;5120076;27;20201;-39
2022/03/31 02:08:05;;;;;;;9.82;4.35;;;4.10;99.90;;;;;;5119405;27;20019;-38
2022/03/31 02:10:30;;;;;;;9.00;4.38;;;4.10;99.90;;;;;;5119272;27;20042;-39
2022/03/31 02:12:56;;;;;;;10.88;4.80;;;4.10;99.90;;;;;;5120596;27;20078;-38
2022/03/31 02:15:22;;;;;;;10.05;4.40;;;4.00;99.90;;;;;;5114716;27;20027;-38
2022/03/31 02:17:48;;;;;;;11.52;4.35;;;4.00;99.90;;;;;;5124652;27;20037;-38
2022/03/31 02:20:14;;;;;;;8.65;4.40;;;4.00;99.90;;;;;;5120058;28;20044;-39
2022/03/31 02:22:39;;;;;;;10.10;4.53;;;3.90;99.90;;;;;;5117869;28;20066;-39
2022/03/31 02:25:24;;;;;;;10.98;4.72;;;4.00;99.90;;;;;;5121804;28;20131;-39
2022/03/31 02:27:52;;;;;;;11.23;4.53;;;3.90;99.90;;;;;;5123205;28;20023;-39
2022/03/31 02:30:19;;;;;;;11.25;5.05;;;3.90;99.90;;;;;;5119799;28;20020;-39
2022/03/31 02:32:44;;;;;;;9.85;5.28;;;3.90;99.90;;;;;;5119126;28;20057;-39
2022/03/31 02:35:10;;;;;;;6.30;4.53;;;3.90;99.90;;;;;;5120899;28;20027;-39
2022/03/31 02:37:36;;;;;;;9.30;4.47;;;3.90;99.90;;;;;;5120120;27;20026;-39
2022/03/31 02:40:04;;;;;;;12.52;5.38;;;3.80;99.90;;;;;;5117777;28;20395;-39
2022/03/31 02:42:29;;;;;;;12.43;6.10;;;3.80;99.90;;;;;;5118811;28;20031;-40
2022/03/31 02:44:55;;;;;;;12.02;5.03;;;3.80;99.90;;;;;;5119901;27;20023;-38
2022/03/31 02:47:21;;;;;;;11.88;5.43;;;3.80;99.90;;;;;;5113869;27;20019;-38
2022/03/31 02:49:46;;;;;;;7.20;4.75;;;3.80;99.90;;;;;;5121833;27;20027;-38
2022/03/31 02:52:12;;;;;;;13.35;5.22;;;3.70;99.90;;;;;;5118059;28;20016;-38
2022/03/31 02:57:22;;;;;;;11.38;5.47;;;3.70;99.90;;;;;;5120793;28;20030;-38
2022/03/31 02:59:48;;;;;;;8.70;4.45;;;3.70;99.90;;;;;;5119938;27;20114;-38
2022/03/31 03:02:13;;;;;;;14.35;4.20;;;3.70;99.90;;;;;;5126363;27;20023;-39
2022/03/31 03:04:39;;;;;;;7.25;4.03;;;3.70;99.90;;;;;;5123942;27;20027;-38
2022/03/31 03:07:05;;;;;;;11.00;4.65;;;3.70;99.90;;;;;;5124871;27;20115;-38
2022/03/31 03:09:31;;;;;;;10.20;4.72;;;3.80;99.90;;;;;;5126987;27;20475;-38
2022/03/31 03:11:57;;;;;;;14.65;5.25;;;3.80;99.90;;;;;;5134522;27;20027;-39
2022/03/31 03:14:22;;;;;;;11.57;5.25;;;3.80;99.90;;;;;;5134347;27;20034;-39
2022/03/31 03:16:48;;;;;;;15.07;4.97;;;3.90;99.90;;;;;;5140209;27;20031;-39
2022/03/31 03:19:14;;;;;;;16.42;5.50;;;3.80;99.90;;;;;;5149475;27;20029;-40
2022/03/31 03:21:39;;;;;;;15.52;4.88;;;3.80;99.90;;;;;;5155182;27;20023;-38
2022/03/31 03:24:06;;;;;;;8.35;4.57;;;3.90;99.90;;;;;;5153927;27;20101;-38
2022/03/31 03:26:32;;;;;;;13.05;4.95;;;3.90;99.90;;;;;;5155234;27;20018;-39
2022/03/31 03:28:57;;;;;;;12.27;5.80;;;3.90;99.90;;;;;;5154527;27;20504;-38
2022/03/31 03:31:23;;;;;;;11.93;6.07;;;3.90;99.90;;;;;;5154974;27;20023;-39
2022/03/31 03:33:48;;;;;;;10.85;5.78;;;3.90;99.90;;;;;;5155072;27;20489;-39
2022/03/31 03:36:16;;;;;;;12.93;5.45;;;4.00;99.90;;;;;;5154823;27;20075;-38
2022/03/31 03:38:42;;;;;;;9.63;4.53;;;4.10;99.90;;;;;;5154100;27;20022;-39
2022/03/31 03:41:10;;;;;;;8.30;4.50;;;4.10;99.90;;;;;;5154794;27;20034;-38
2022/03/31 03:43:36;;;;;;;7.82;4.13;;;4.10;99.90;;;;;;5154905;27;20041;-39
2022/03/31 03:46:02;;;;;;;8.50;4.47;;;4.20;99.90;;;;;;5150473;27;20539;-39
2022/03/31 03:48:28;;;;;;;12.95;4.07;;;4.10;99.90;;;;;;5145937;27;20418;-38
2022/03/31 03:50:53;;;;;;;7.53;4.30;;;4.10;99.90;;;;;;5153936;27;20023;-38
2022/03/31 03:53:19;;;;;;;9.45;4.60;;;4.20;99.90;;;;;;5154431;27;20011;-39
2022/03/31 03:55:45;;;;;;;10.27;4.38;;;4.20;99.90;;;;;;5154414;27;20446;-38
2022/03/31 03:58:10;;;;;;;7.30;3.90;;;4.20;99.90;;;;;;5154431;27;20037;-38
2022/03/31 04:00:36;;;;;;;12.65;4.45;;;4.10;99.90;;;;;;5148610;27;20066;-39
2022/03/31 04:03:01;;;;;;;8.50;4.20;;;4.20;99.90;;;;;;5111677;28;20499;-39
2022/03/31 04:05:28;;;;;;;8.80;4.10;;;4.20;99.90;;;;;;5111970;28;20039;-39
2022/03/31 04:07:54;;;;;;;7.93;4.60;;;4.10;99.90;;;;;;5113089;28;20502;-39
2022/03/31 04:10:20;;;;;;;10.43;4.55;;;4.20;99.90;;;;;;5112388;28;20047;-38
2022/03/31 04:12:45;;;;;;;10.15;4.90;;;4.20;99.90;;;;;;5112462;28;20141;-38
2022/03/31 04:15:13;;;;;;;9.52;4.40;;;4.20;99.90;;;;;;5111254;28;20071;-39
2022/03/31 04:17:39;;;;;;;9.90;4.35;;;4.20;99.90;;;;;;5144926;27;20036;-39
2022/03/31 04:20:05;;;;;;;8.00;4.75;;;4.20;99.90;;;;;;5152146;27;20027;-39
2022/03/31 04:22:33;;;;;;;13.48;5.47;;;4.20;99.90;;;;;;5154141;27;20057;-38
2022/03/31 04:25:00;;;;;;;10.32;4.93;;;4.20;99.90;;;;;;5153996;27;20015;-39
2022/03/31 04:27:25;;;;;;;11.32;6.03;;;4.20;99.90;;;;;;5154075;27;20037;-39
2022/03/31 04:29:51;;;;;;;8.52;5.55;;;4.20;99.90;;;;;;5153028;27;20023;-39
2022/03/31 04:32:16;;;;;;;13.77;6.10;;;4.20;99.90;;;;;;5152278;27;20074;-39
2022/03/31 04:34:42;;;;;;;10.77;5.82;;;4.20;99.90;;;;;;5153754;27;20034;-39
2022/03/31 04:37:07;;;;;;;13.05;5.80;;;4.10;99.90;;;;;;5153873;27;20527;-39
2022/03/31 04:39:33;;;;;;;15.02;6.07;;;4.10;99.90;;;;;;5153081;27;20037;-38
2022/03/31 04:41:59;;;;;;;13.35;7.05;;;4.20;99.90;;;;;;5153430;27;20023;-39
2022/03/31 04:44:24;;;;;;;11.50;6.82;;;4.10;99.90;;;;;;5153715;27;20075;-39
2022/03/31 04:46:50;;;;;;;11.48;6.82;;;4.10;99.90;;;;;;5145187;27;20019;-39
2022/03/31 04:49:15;;;;;;;11.68;6.72;;;4.00;99.90;;;;;;5149315;27;20018;-39
2022/03/31 04:51:41;;;;;;;14.23;7.35;;;4.10;99.90;;;;;;5153537;27;20191;-39
2022/03/31 04:54:06;;;;;;;11.10;6.78;;;4.00;99.90;;;;;;5153407;27;20037;-39
2022/03/31 04:56:32;;;;;;;18.40;7.53;;;4.10;99.90;;;;;;5153384;27;20467;-38
2022/03/31 04:58:58;;;;;;;14.05;7.50;;;4.00;99.90;;;;;;5152512;27;20118;-39
2022/03/31 05:01:25;;;;;;;13.60;6.38;;;4.00;99.90;;;;;;5153068;27;20045;-38
2022/03/31 05:03:51;;;;;;;14.15;7.55;;;3.90;99.90;;;;;;5153089;27;20038;-41
2022/03/31 05:06:17;;;;;;;12.32;7.38;;;3.90;99.90;;;;;;5153130;27;20074;-38
2022/03/31 05:08:42;;;;;;;17.15;8.15;;;4.00;99.90;;;;;;5152362;27;20464;-38
2022/03/31 05:11:08;;;;;;;15.52;7.75;;;4.00;99.90;;;;;;5153018;27;20035;-38
2022/03/31 05:13:34;;;;;;;18.40;8.55;;;4.00;99.90;;;;;;5152880;27;20023;-38
2022/03/31 05:15:59;;;;;;;15.48;9.07;;;4.00;99.90;;;;;;5147781;27;20040;-38
2022/03/31 05:18:25;;;;;;;16.35;7.93;;;4.00;99.90;;;;;;5144203;27;20061;-39
2022/03/31 05:20:51;;;;;;;15.88;8.73;;;4.00;99.90;;;;;;5152243;27;20023;-38
2022/03/31 05:23:17;;;;;;;14.73;8.23;;;4.00;99.90;;;;;;5151482;27;20514;-38
2022/03/31 05:25:43;;;;;;;18.35;9.20;;;4.00;99.90;;;;;;5152112;27;20110;-38
2022/03/31 05:28:09;;;;;;;15.02;8.68;;;4.00;99.90;;;;;;5152874;27;20359;-39
2022/03/31 05:30:35;;;;;;;20.17;10.15;;;4.00;99.90;;;;;;5146799;27;20696;-39
2022/03/31 05:33:01;;;;;;;15.40;8.77;;;4.00;99.90;;;;;;5134831;27;20023;-39
2022/03/31 05:35:27;;;;;;;18.00;9.07;;;4.00;99.90;;;;;;5150468;27;20018;-39
2022/03/31 05:37:53;;;;;;;16.38;9.73;;;4.00;99.90;;;;;;5136884;27;20023;-39
2022/03/31 05:40:19;;;;;;;13.60;9.05;;;4.00;99.90;;;;;;5141952;27;20026;-39
2022/03/31 05:42:46;;;;;;;20.73;9.52;;;4.00;99.90;;;;;;5150640;27;20054;-38
2022/03/31 05:45:13;;;;;;;20.65;10.50;;;4.10;99.90;;;;;;5130083;27;20029;-38
2022/03/31 05:47:40;;;;;;;16.13;8.48;;;4.10;99.90;;;;;;5128667;27;20577;-38
2022/03/31 05:50:08;;;;;;;19.45;10.05;;;4.10;99.90;;;;;;5127848;27;20058;-38
2022/03/31 05:52:34;;;;;;;20.80;10.25;;;4.00;99.90;;;;;;5138714;27;20026;-39
2022/03/31 05:55:00;;;;;;;17.77;9.90;;;4.00;99.90;;;;;;5148878;27;20027;-39
2022/03/31 05:57:26;;;;;;;17.77;9.98;;;4.00;99.90;;;;;;5137017;27;20026;-39
2022/03/31 05:59:51;;;;;;;22.83;10.27;;;4.00;99.90;;;;;;5142202;27;20535;-39
2022/03/31 06:02:17;;;;;;;22.67;9.18;;;4.00;99.90;;;;;;5131848;27;20030;-38
2022/03/31 06:04:42;;;;;;;17.80;10.27;;;4.10;99.90;;;;;;5141652;27;20031;-38
2022/03/31 06:07:08;;;;;;;14.18;9.25;;;4.10;99.90;;;;;;5138314;27;20022;-39
2022/03/31 06:09:34;;;;;;;18.23;10.27;;;4.00;99.90;;;;;;5140712;27;20021;-38
2022/03/31 06:12:00;;;;;;;23.48;10.05;;;4.00;99.90;;;;;;5147566;27;20026;-38
2022/03/31 06:14:26;;;;;;;19.02;10.35;;;4.10;99.90;;;;;;5137054;27;20357;-38
2022/03/31 06:16:52;;;;;;;23.75;10.15;;;4.20;99.90;;;;;;5150037;27;20051;-38
2022/03/31 06:19:17;;;;;;;17.08;10.48;;;4.20;99.90;;;;;;5124492;27;20024;-38
2022/03/31 06:21:43;;;;;;;17.23;10.50;;;4.30;99.90;;;;;;5125417;27;20023;-38
2022/03/31 06:24:09;;;;;;;18.92;9.82;;;4.30;99.90;;;;;;5131199;27;20023;-38
2022/03/31 06:26:35;;;;;;;22.35;9.73;;;4.40;99.90;;;;;;5141130;27;20472;-39
2022/03/31 06:29:01;;;;;;;21.73;10.35;;;4.50;99.90;;;;;;5141589;27;20021;-38
2022/03/31 06:31:27;;;;;;;23.17;10.82;;;4.50;99.90;;;;;;5141024;27;20510;-38
2022/03/31 06:33:54;;;;;;;18.83;9.45;;;4.40;99.90;;;;;;5148729;27;20023;-39
2022/03/31 06:36:19;;;;;;;18.83;10.30;;;4.50;99.90;;;;;;5140138;27;20031;-38
2022/03/31 06:38:46;;;;;;;14.30;9.48;;;4.60;99.90;;;;;;5145370;27;20030;-38
2022/03/31 06:41:17;;;;;;;18.73;9.50;;;4.80;99.90;;;;;;5154132;27;20026;-38
2022/03/31 06:43:44;;;;;;;;;;;4.80;99.90;;;;;;5134902;27;20488;-39
2022/03/31 06:46:10;;;;;;;18.25;8.75;;;4.90;99.80;;;;;;5136595;27;19949;-39
2022/03/31 06:48:41;;;;;;;13.57;9.32;;;4.80;99.30;;;;;;5148088;27;20046;-38
2022/03/31 06:51:08;;;;;;;12.15;8.30;;;4.80;99.60;;;;;;5145211;27;20026;-38
2022/03/31 06:53:36;;;;;;;20.33;8.57;;;4.90;99.60;;;;;;5150653;27;20420;-38
2022/03/31 06:56:03;;;;;;;17.48;9.63;;;5.00;98.80;;;;;;5145206;27;20015;-39
2022/03/31 06:58:30;;;;;;;14.23;9.15;;;5.00;98.60;;;;;;5151629;27;20041;-38
2022/03/31 07:00:56;;;;;;;17.50;9.60;;;5.00;98.70;;;;;;5135252;27;20144;-38
2022/03/31 07:03:22;;;;;;;16.50;9.18;;;5.00;98.70;;;;;;5117008;27;20145;-38
2022/03/31 07:05:48;;;;;;;20.75;9.55;;;5.00;98.30;;;;;;5133698;27;20492;-39
2022/03/31 07:08:13;;;;;;;14.50;8.77;;;5.00;98.70;;;;;;5123150;27;20042;-38
2022/03/31 07:10:39;;;;;;;13.18;9.35;;;5.00;98.60;;;;;;5131671;27;20030;-39
2022/03/31 07:13:04;;;;;;;19.55;9.35;;;5.00;98.60;;;;;;5147725;27;20118;-38
2022/03/31 07:15:31;;;;;;;16.00;9.38;;;5.00;98.70;;;;;;5144641;27;20027;-38
2022/03/31 07:17:58;;;;;;;20.60;9.48;;;5.20;97.80;;;;;;5146725;27;20455;-39
2022/03/31 07:20:24;;;;;;;13.32;8.80;;;5.10;97.90;;;;;;5142224;27;20488;-38
2022/03/31 07:22:50;;;;;;;18.05;9.65;;;5.10;97.60;;;;;;5144744;27;20031;-38
2022/03/31 07:25:16;;;;;;;18.00;10.20;;;5.10;97.70;;;;;;5136364;27;20015;-38
2022/03/31 07:27:42;;;;;;;14.00;8.70;;;5.10;97.80;;;;;;5135893;27;20099;-38
2022/03/31 07:30:09;;;;;;;18.10;9.10;;;5.20;98.00;;;;;;5151068;27;20030;-38
2022/03/31 07:32:35;;;;;;;13.13;8.73;;;5.10;97.60;;;;;;5139662;27;20396;-37
2022/03/31 07:35:01;;;;;;;18.00;8.45;;;5.20;97.60;;;;;;5145820;27;20040;-37
2022/03/31 07:37:27;;;;;;;14.57;8.10;;;5.30;97.40;;;;;;5142892;27;20027;-37
2022/03/31 07:39:54;;;;;;;15.15;8.50;;;5.40;97.10;;;;;;5142673;27;20109;-37
2022/03/31 07:42:19;;;;;;;18.92;8.38;;;5.40;97.20;;;;;;5150791;27;20030;-37
2022/03/31 07:44:45;;;;;;;17.38;8.13;;;5.50;96.60;;;;;;5135182;27;20069;-37
2022/03/31 07:47:10;;;;;;;11.77;7.45;;;5.60;96.60;;;;;;5146172;27;20457;-37
2022/03/31 07:49:36;;;;;;;13.50;8.68;;;5.50;96.70;;;;;;5131506;27;20010;-37
2022/03/31 07:52:03;;;;;;;14.57;7.70;;;5.80;96.20;;;;;;5142547;27;20042;-37
2022/03/31 07:54:28;;;;;;;14.85;7.55;;;5.90;95.90;;;;;;5146840;27;20029;-37
2022/03/31 07:56:54;;;;;;;12.05;7.93;;;6.10;95.70;;;;;;5132469;27;20023;-37
2022/03/31 07:59:23;;;;;;;11.85;7.57;;;6.40;95.10;;;;;;5147853;27;20072;-37
2022/03/31 08:01:49;;;;;;;13.23;7.47;;;6.50;94.40;;;;;;5139806;27;20019;-38
2022/03/31 08:04:16;;;;;;;11.73;7.30;;;6.60;94.00;;;;;;5119736;27;20026;-38
2022/03/31 08:06:43;;;;;;;15.40;7.25;;;6.70;93.40;;;;;;5126372;27;20301;-38
2022/03/31 08:09:10;;;;;;;15.45;7.13;;;6.60;93.40;;;;;;5122556;27;20019;-38
2022/03/31 08:11:36;;;;;;;17.45;11.13;;;6.60;93.60;;;;;;5120105;27;20033;-38
2022/03/31 08:14:02;;;;;;;22.88;10.35;;;6.70;93.30;;;;;;5136362;27;20015;-38
2022/03/31 08:16:27;;;;;;;10.90;7.63;;;6.90;92.80;;;;;;5131191;27;20785;-37
2022/03/31 08:18:54;;;;;;;10.40;6.88;;;7.00;92.70;;;;;;5135124;27;20676;-38
2022/03/31 08:21:19;;;;;;;12.38;7.10;;;7.10;92.20;;;;;;5148818;27;20102;-38
2022/03/31 08:23:45;;;;;;;13.38;7.38;;;7.00;92.40;;;;;;5152430;27;20110;-38
2022/03/31 08:26:10;;;;;;;15.60;7.47;;;7.10;92.00;;;;;;5148042;27;20026;-38
2022/03/31 08:28:36;;;;;;;16.40;7.45;;;7.20;92.30;;;;;;5142875;27;20027;-38
2022/03/31 08:31:01;;;;;;;12.10;7.28;;;7.10;91.30;;;;;;5149215;27;20066;-38
2022/03/31 08:33:27;;;;;;;9.63;6.65;;;7.20;91.30;;;;;;5143163;27;20027;-38
2022/03/31 08:35:52;;;;;;;12.68;7.18;;;7.20;91.40;;;;;;5140273;27;20023;-38
2022/03/31 08:38:18;;;;;;;15.13;6.82;;;7.30;91.90;;;;;;5136580;27;20015;-38
2022/03/31 08:40:44;;;;;;;9.30;6.30;;;7.40;90.80;;;;;;5142096;27;20016;-38
2022/03/31 08:43:10;;;;;;;11.68;7.07;;;7.60;90.50;;;;;;5135018;27;20039;-38
2022/03/31 08:45:36;;;;;;;11.77;6.55;;;7.50;90.30;;;;;;5148171;27;20019;-38
2022/03/31 08:48:04;;;;;;;17.25;7.15;;;7.60;90.80;;;;;;5132347;27;20385;-38
2022/03/31 08:50:34;;;;;;;10.40;6.63;;;7.80;90.00;;;;;;5149495;27;20526;-38
2022/03/31 08:52:59;;;;;;;11.10;6.23;;;7.90;90.10;;;;;;5133142;27;20422;-39
2022/03/31 08:55:25;;;;;;;11.07;6.20;;;8.00;88.70;;;;;;5149184;27;20022;-38
2022/03/31 08:57:54;;;;;;;10.45;6.93;;;8.20;88.30;;;;;;5135342;27;20027;-38
2022/03/31 09:00:21;;;;;;;10.80;6.00;;;8.20;88.80;;;;;;5142028;27;20034;-38
2022/03/31 09:03:00;;;;;;;16.40;7.28;;;8.60;87.60;;;;;;5148790;27;20113;-38
2022/03/31 09:05:27;;;;;;;12.13;6.40;;;8.80;86.20;;;;;;5138526;27;20484;-39
2022/03/31 09:07:59;;;;;;;12.68;6.45;;;9.00;83.70;;;;;;5151332;27;20030;-38
2022/03/31 09:10:49;;;;;;;13.15;6.13;;;9.00;82.80;;;;;;5150733;27;20100;-38
2022/03/31 09:13:28;;;;;;;12.80;6.80;;;8.80;83.30;;;;;;5135930;27;20053;-38
2022/03/31 09:15:56;;;;;;;12.07;6.38;;;8.70;82.80;;;;;;5110401;28;20523;-38
2022/03/31 09:18:23;;;;;;;16.23;7.35;;;8.50;82.80;;;;;;5136588;27;20050;-38
2022/03/31 09:20:52;;;;;;;9.45;5.93;;;8.20;84.40;;;;;;5151085;27;20030;-38
2022/03/31 09:23:22;;;;;;;11.68;6.80;;;8.40;83.60;;;;;;5147541;27;20077;-38
2022/03/31 09:25:50;;;;;;;11.05;6.80;;;8.50;84.10;;;;;;5143616;27;20140;-38
2022/03/31 09:28:24;;;;;;;12.25;7.00;;;8.70;82.80;;;;;;5150841;27;20023;-39
2022/03/31 09:30:55;;;;;;;10.75;6.50;;;8.70;81.40;;;;;;5146847;27;20050;-39
2022/03/31 09:33:30;;;;;;;17.52;6.57;;;8.80;81.30;;;;;;5136317;27;20484;-39
2022/03/31 09:36:00;;;;;;;15.15;6.90;;;8.90;80.80;;;;;;5150677;27;20055;-39
2022/03/31 09:38:26;;;;;;;14.30;6.77;;;9.00;81.70;;;;;;5138064;27;20019;-39
2022/03/31 09:40:53;;;;;;;12.35;6.35;;;9.00;81.00;;;;;;5148602;27;20542;-38
2022/03/31 09:43:18;;;;;;;12.80;6.57;;;9.30;79.50;;;;;;5137197;27;20035;-39
2022/03/31 09:45:44;;;;;;;17.80;6.53;;;9.70;78.30;;;;;;5149294;27;20015;-39
2022/03/31 09:48:21;;;;;;;10.10;6.25;;;10.00;78.20;;;;;;5137744;27;20630;-39
2022/03/31 09:50:48;;;;;;;14.10;6.30;;;10.10;75.10;;;;;;5133551;27;20113;-39
2022/03/31 09:53:15;;;;;;;12.95;6.57;;;10.30;74.90;;;;;;5138768;27;20109;-39
2022/03/31 09:55:42;;;;;;;10.27;6.03;;;10.30;74.40;;;;;;5133510;27;20027;-38
2022/03/31 09:58:08;;;;;;;9.93;6.53;;;10.40;74.40;;;;;;5141634;27;20018;-39
2022/03/31 10:00:35;;;;;;;11.20;5.85;;;10.40;74.20;;;;;;5140927;27;20159;-38
2022/03/31 10:03:01;;;;;;;9.35;6.28;;;10.40;72.50;;;;;;5142880;27;20475;-39
2022/03/31 10:05:27;;;;;;;9.18;6.13;;;10.60;72.70;;;;;;5141680;27;20463;-37
2022/03/31 10:07:54;;;;;;;13.23;6.55;;;11.40;69.60;;;;;;5143111;27;20042;-38
2022/03/31 10:10:19;;;;;;;12.70;6.10;;;11.20;68.80;;;;;;5140311;27;20019;-38
2022/03/31 10:12:56;;;;;;;11.88;6.47;;;11.20;67.60;;;;;;5146122;27;20536;-38
2022/03/31 10:15:31;;;;;;;11.23;5.45;;;11.10;68.30;;;;;;5141377;27;20019;-38
2022/03/31 10:17:57;;;;;;;11.18;5.85;;;11.20;67.60;;;;;;5146729;27;20126;-39
2022/03/31 10:20:23;;;;;;;12.02;6.18;;;11.20;68.30;;;;;;5140924;27;20029;-38
2022/03/31 10:25:48;;;;;;;15.95;6.43;;;10.60;68.30;;;;;;5130883;27;20034;-38
2022/03/31 10:28:22;;;;;;;12.73;6.25;;;10.30;69.20;;;;;;5121143;28;20023;-38
2022/03/31 10:31:00;;;;;;;15.60;6.43;;;9.90;69.80;;;;;;5129780;27;20023;-38
2022/03/31 10:33:30;;;;;;;8.00;5.20;;;9.90;69.20;;;;;;5122163;27;20028;-38
2022/03/31 10:36:33;;;;;;;12.95;6.22;;;9.70;71.60;;;;;;5139777;27;20118;-38
2022/03/31 10:39:02;;;;;;;10.57;6.13;;;9.70;70.70;;;;;;5118547;27;20051;-38
2022/03/31 10:41:31;;;;;;;9.93;5.40;;;9.60;70.90;;;;;;5147784;27;20368;-38
2022/03/31 10:43:58;;;;;;;13.05;5.82;;;9.40;71.10;;;;;;5130376;27;20026;-38
2022/03/31 10:46:25;;;;;;;11.15;5.32;;;8.90;72.70;;;;;;5147299;27;20391;-38
2022/03/31 10:48:57;;;;;;;15.20;5.93;;;8.80;71.90;;;;;;5130102;27;20020;-38
2022/03/31 10:51:37;;;;;;;16.50;6.25;;;8.80;71.70;;;;;;5139364;27;20114;-38
2022/03/31 10:54:04;;;;;;;14.23;6.10;;;8.80;72.00;;;;;;5144489;27;20051;-38
2022/03/31 10:56:32;;;;;;;9.68;5.25;;;9.10;71.50;;;;;;5136867;27;20023;-38
2022/03/31 10:59:00;;;;;;;10.18;5.90;;;8.90;70.40;;;;;;5143065;27;20200;-38
2022/03/31 11:01:31;;;;;;;16.13;6.32;;;9.00;71.80;;;;;;5136363;27;20023;-38
2022/03/31 11:04:07;;;;;;;12.63;5.45;;;9.00;71.60;;;;;;5142568;27;20383;-38
2022/03/31 11:06:33;;;;;;;10.13;5.47;;;9.10;70.80;;;;;;5136088;27;20015;-38
2022/03/31 11:08:58;;;;;;;8.93;5.55;;;9.20;71.60;;;;;;5141524;27;20019;-39
2022/03/31 11:11:27;;;;;;;11.38;5.60;;;9.40;69.90;;;;;;5128871;28;20056;-37
2022/03/31 11:13:55;;;;;;;6.93;5.20;;;9.40;69.80;;;;;;5130667;27;20030;-37
2022/03/31 11:16:40;;;;;;;13.57;5.72;;;9.30;70.50;;;;;;5146616;27;20044;-37
2022/03/31 11:19:07;;;;;;;9.45;5.47;;;9.10;70.20;;;;;;5128599;27;20035;-38
2022/03/31 11:21:37;;;;;;;12.38;5.68;;;9.20;70.80;;;;;;5121198;27;20058;-38
2022/03/31 11:24:05;;;;;;;9.73;5.30;;;9.50;69.60;;;;;;5116775;27;20052;-38
2022/03/31 11:26:34;;;;;;;9.52;5.20;;;9.90;68.40;;;;;;5128007;27;20098;-38
2022/03/31 11:29:01;;;;;;;11.15;4.97;;;10.10;67.60;;;;;;5129350;27;20011;-37
2022/03/31 11:31:27;;;;;;;8.95;5.13;;;9.90;67.10;;;;;;5137042;27;20034;-38
2022/03/31 11:33:55;;;;;;;10.25;6.32;;;9.80;68.10;;;;;;5146688;27;20475;-38
2022/03/31 11:36:21;;;;;;;9.88;5.60;;;9.80;67.80;;;;;;5147950;27;20078;-38
2022/03/31 11:38:57;;;;;;;11.75;5.70;;;9.60;67.50;;;;;;5145296;27;20026;-47
2022/03/31 11:41:23;;;;;;;12.00;5.85;;;9.20;69.60;;;;;;5137706;27;20110;-46
2022/03/31 11:43:49;;;;;;;12.95;6.03;;;9.00;69.90;;;;;;5132225;27;20023;-45
2022/03/31 11:46:15;;;;;;;10.27;5.50;;;9.00;69.80;;;;;;5119093;27;20433;-46
2022/03/31 11:48:41;;;;;;;7.75;5.50;;;8.90;70.10;;;;;;5127503;27;20031;-45
2022/03/31 11:51:08;;;;;;;8.23;5.13;;;8.90;69.50;;;;;;5115977;27;20020;-44
2022/03/31 11:53:38;;;;;;;11.65;5.63;;;9.00;69.80;;;;;;5130727;27;20023;-45
2022/03/31 11:56:06;;;;;;;7.88;5.10;;;8.80;70.00;;;;;;5136148;27;20510;-46
2022/03/31 11:58:42;;;;;;;8.60;5.35;;;8.80;69.80;;;;;;5151299;27;20019;-47
2022/03/31 12:01:08;;;;;;;12.48;6.55;;;8.90;69.20;;;;;;5134501;27;20072;-48
2022/03/31 12:03:38;;;;;;;9.90;5.93;;;8.90;69.20;;;;;;5143927;27;20165;-45
2022/03/31 12:06:05;;;;;;;8.32;5.80;;;8.80;69.70;;;;;;5136111;27;20535;-47
2022/03/31 12:08:32;;;;;;;10.13;5.53;;;8.90;69.30;;;;;;5150886;27;20015;-46
2022/03/31 12:10:58;;;;;;;12.20;5.57;;;8.80;69.20;;;;;;5135182;27;20022;-44
2022/03/31 12:13:26;;;;;;;11.57;5.10;;;8.90;67.90;;;;;;5138963;27;20488;-44
2022/03/31 12:16:02;;;;;;;10.63;5.57;;;8.70;68.10;;;;;;5150901;27;20413;-44
2022/03/31 12:18:30;;;;;;;14.13;5.72;;;8.60;68.80;;;;;;5139990;27;20035;-45
2022/03/31 12:20:58;;;;;;;11.80;6.60;;;8.80;68.10;;;;;;5135962;27;20097;-46
2022/03/31 12:23:26;;;;;;;8.52;5.15;;;8.70;67.80;;;;;;5131801;27;20023;-46
2022/03/31 12:25:52;;;;;;;12.85;6.20;;;8.80;67.60;;;;;;5135803;27;20367;-48
2022/03/31 12:28:23;;;;;;;8.57;5.50;;;8.60;68.00;;;;;;5148629;27;20027;-45
2022/03/31 12:30:51;;;;;;;11.20;5.75;;;8.60;67.10;;;;;;5145927;27;20017;-46
2022/03/31 12:33:28;;;;;;;9.15;5.32;;;8.70;67.70;;;;;;5130315;27;20031;-46
2022/03/31 12:35:57;;;;;;;8.98;5.40;;;8.80;66.90;;;;;;5117934;27;20606;-46
2022/03/31 12:38:43;;;;;;;10.45;6.15;;;9.00;66.50;;;;;;5123972;27;20015;-46
2022/03/31 12:41:34;;;;;;;12.52;6.18;;;9.00;66.80;;;;;;5119443;27;20080;-47
2022/03/31 12:44:11;;;;;;;9.32;4.85;;;9.00;66.40;;;;;;5124072;27;20015;-46
2022/03/31 12:46:56;;;;;;;8.02;5.10;;;8.80;63.70;;;;;;5120952;27;20033;-45
2022/03/31 12:49:31;;;;;;;9.38;4.88;;;8.70;63.80;;;;;;5120453;27;20787;-45
2022/03/31 12:52:00;;;;;;;11.55;5.03;;;8.60;65.50;;;;;;5121033;27;20028;-46
2022/03/31 12:54:35;;;;;;;6.82;4.97;;;8.60;64.00;;;;;;5119694;27;20024;-46
2022/03/31 12:57:13;;;;;;;9.50;4.97;;;8.60;64.90;;;;;;5125152;27;20026;-46